This is the latest recevied weather packets stored in our database for station/object KB0OLA. If no packets are shown the sender has not sent any weather packets the latest 10 day(s).
| Time | Temp. | Humidity | Pressure | Rain* | Wind** | Luminosity | Snow |
|---|---|---|---|---|---|---|---|
| 1777347916 | 2.78° C | 81% | 1015.3 hPa | 0 mm | - | - | - |
| 1777344316 | 4.44° C | 77% | 1014.4 hPa | 0.25 mm | - | - | - |
| 1777339518 | 5.56° C | 70% | 1013.6 hPa | 0 mm | - | - | - |
| 1777338318 | 6.11° C | 70% | 1013.5 hPa | 0 mm | - | - | - |
| 1777335918 | 6.67° C | 70% | 1013.6 hPa | 0 mm | - | - | - |
| 1777334718 | 6.67° C | 68% | 1013.5 hPa | 0 mm | - | - | - |
| 1777332938 | 5.56° C | 71% | 1013.4 hPa | 0 mm | - | - | - |
| 1777332338 | 5.56° C | 71% | 1013.4 hPa | 0 mm | - | - | - |
| 1777331717 | 5.56° C | 70% | 1013.3 hPa | 0 mm | - | - | - |
| 1777331158 | 6.11° C | 66% | 1013.1 hPa | 0 mm | - | - | - |
| 1777322717 | 7.78° C | 49% | 1013.2 hPa | 0 mm | - | - | - |
| 1777314917 | 5.56° C | 73% | 1013.3 hPa | 0 mm | - | - | - |
| 1777313717 | 5° C | 79% | 1013.3 hPa | 0 mm | - | - | - |
| 1777312517 | 4.44° C | 79% | 1013.4 hPa | 0 mm | - | - | - |
| 1777310136 | 3.33° C | 81% | 1013.4 hPa | 0.25 mm | - | - | - |
| 1777308936 | 3.33° C | 86% | 1013.6 hPa | 0.51 mm | - | - | - |
| 1777302318 | 2.78° C | 82% | 1013.1 hPa | 0 mm | - | - | - |
| 1777300518 | 3.33° C | 85% | 1012.7 hPa | 0 mm | - | - | - |
| 1777298119 | 3.33° C | 87% | 1011.9 hPa | 0 mm | - | - | - |
| 1777293318 | 3.33° C | 95% | 1011.3 hPa | 0 mm | - | - | - |
| 1777292718 | 3.33° C | 95% | 1011.5 hPa | 0 mm | - | - | - |
| 1777290917 | 2.78° C | 95% | 1011.4 hPa | 0 mm | - | - | - |
| 1777289117 | 1.67° C | 95% | 1010.9 hPa | 0 mm | - | - | - |
| 1777287317 | 1.67° C | 94% | 1010.9 hPa | 0 mm | - | - | - |
| 1777286717 | 1.67° C | 94% | 1010.9 hPa | 0 mm | - | - | - |
* Rain latest hour (hover to see other rain measurements)
** Current wind speed in m/s (hover to see current wind gust speed)